Pagina principale
METAR-TAF:

METAR-TAF

Aeroporti :

Pécs, Ungheria

latitudine: 46-06N, longitudine: 018-14E, altezza: 201 m

Osservazione

Il bollettino è stato emesso 27 minuti fa, alle 15:45 UTC
Vento 10 kt da est/nord-est
Temperature 25°C
Umidità 54%
Pressione 1018 hPa
Visibilità 10 km o più
nessuna nube inferiore a 1500 m e nessun cumulonembo

METAR: LHPP 181545Z 07010KT CAVOK 25/15 Q1018

Ora: 18:12 (16:12 UTC)

Previsione

Il bollettino è stato emesso 1 ora e 57 minuti fa, alle 14:15 UTC
Previsione valida dal 18 alle 15 UTC al 18 alle 24 UTC
Vento 3 kt da direzioni variabili
Visibilità 10 km o più
nessuna nube inferiore a 1500 m e nessun cumulonembo
Probabilità 30% :
Temporaneamente
dal 18 alle 15 UTC al 18 alle 17 UTC
Vento 20 kt da direzioni variabili con raffiche fino a 34 kt
Visibilità: 4000 m
Nuvoloso ad un'altezza di 4000 ft, Cumulonembo.
temporale, pioggia

TAF: LHPP 181415Z 1815/1824 VRB03KT CAVOK PROB30 TEMPO 1815/1817 VRB20G34KT 4000 TSRA BKN040CB

Osservazioni e previsioni meteorologiche di più di 4000 aeroporti (messaggi METAR e TAF).

Le stazioni disponibili sono rappresentate dai dischi gialli e rossi sulla carta.

Puntare il mouse per vedere il nome della stazione.

Clicca sopra per visualizzare le osservazioni e previsioni meteorologiche.

Per cambiare la mappa : fare clic sui pulsanti verdi con una croce nera per ingrandire, il pulsante verde con un trattino per diminuire, o sulla freccia verde per le mappe adiacenti.


METAR-TAF: